Chafford Hundred, United Kingdom
Current Conditions -  °F | °C
As of 2:20 PM on Thursday 27 Nov 2014 (Local Time) from EGLC Reporting Station
Scattered Clouds Scattered Clouds  
Wind Chill: 52°   Ceiling: Unl
Heat Index: 52°   Visibility: 6mi
Dew Point: 46°   Wind: 5mph
Humidity: 82%   Direction: 130°SE
Pressure: 29.59"   Gusts: NA
Location:  51.49°N, 0.29°E
Report Text: EGLC 271420Z 13004KT 9999 SCT022 11/08 Q1002
Loading
Personal Weather Stations






























Interactive Weather Map New forecast layout! Learn more

10-Day Weather Forecast

Advertisements
Track Severe Weather on mobile